Time;durP1;ratioP1;P1;durP2;ratioP2;P2;SDS_P1;SDS_P2;PMS_P1;PMS_P2;Temp;Humidity;BMP_temperature;BMP_pressure;BME280_temperature;BME280_humidity;BME280_pressure;Samples;Min_cycle;Max_cycle;Signal;HPM_P1;HPM_P2
2023/05/18 00:02:04;;;;;;;9.05;3.35;;;7.00;99.90;;;-144.05;56.51;56889.19;5056681;28;20036;-77
2023/05/18 00:04:34;;;;;;;14.00;4.15;;;7.00;99.90;;;-144.05;56.52;56887.06;5056892;28;20021;-77
2023/05/18 00:07:03;;;;;;;10.75;3.55;;;6.90;99.90;;;-144.05;57.43;56897.69;5056310;28;20052;-77
2023/05/18 00:09:32;;;;;;;13.70;4.18;;;6.90;99.90;;;-144.05;57.05;56870.06;5056879;28;20031;-77
2023/05/18 00:12:00;;;;;;;12.73;4.13;;;6.90;99.90;;;-144.05;57.45;56895.56;5056710;28;20127;-78
2023/05/18 00:14:27;;;;;;;15.73;4.20;;;6.90;99.90;;;-144.05;57.60;56889.19;5057057;28;20037;-77
2023/05/18 00:16:53;;;;;;;18.30;4.38;;;6.80;99.90;;;-144.05;57.72;56880.69;5055955;28;20405;-77
2023/05/18 00:19:22;;;;;;;12.38;4.80;;;6.80;99.90;;;-144.05;57.87;56870.06;5056469;28;20464;-77
2023/05/18 00:21:51;;;;;;;9.57;3.85;;;6.80;99.90;;;-144.05;57.80;56893.44;5056342;28;20029;-77
2023/05/18 00:24:18;;;;;;;12.45;4.40;;;6.80;99.90;;;-144.05;58.23;56878.56;5038306;28;20140;-78
2023/05/18 00:26:50;;;;;;;14.85;4.38;;;6.80;99.90;;;-144.05;57.73;56893.44;5057107;28;20178;-77
2023/05/18 00:29:16;;;;;;;18.98;4.75;;;6.80;99.90;;;-144.05;57.85;56908.31;5055973;28;20135;-77
2023/05/18 00:31:44;;;;;;;12.70;4.53;;;6.80;99.90;;;-144.05;57.93;56872.19;5037971;28;20029;-77
2023/05/18 00:34:13;;;;;;;16.02;5.10;;;6.70;99.90;;;-144.05;57.96;56901.94;5056528;28;20270;-77
2023/05/18 00:36:40;;;;;;;17.45;5.28;;;6.70;99.90;;;-144.05;57.98;56904.06;5056349;28;20029;-77
2023/05/18 00:39:08;;;;;;;15.18;4.35;;;6.70;99.90;;;-144.05;58.50;56874.31;5055995;28;20033;-77
2023/05/18 00:41:35;;;;;;;14.60;4.97;;;6.70;99.90;;;-144.05;58.41;56891.31;5056587;28;20112;-77
2023/05/18 00:44:00;;;;;;;20.38;6.13;;;6.60;99.90;;;-144.05;58.70;56904.06;5056297;28;20068;-78
2023/05/18 00:46:27;;;;;;;16.17;5.20;;;6.60;99.90;;;-144.05;58.49;56895.56;5055557;28;20053;-75
2023/05/18 00:48:56;;;;;;;18.70;5.43;;;6.60;99.90;;;-144.05;58.68;56887.06;5055962;28;20093;-77
2023/05/18 00:51:23;;;;;;;15.38;5.50;;;6.60;99.90;;;-144.05;58.69;56889.19;5056343;28;20136;-78
2023/05/18 00:53:52;;;;;;;22.17;7.05;;;6.70;99.90;;;-144.05;58.68;56880.69;5056907;28;20094;-77
2023/05/18 00:56:23;;;;;;;15.48;5.43;;;6.60;99.90;;;-144.05;58.56;56880.69;5056654;28;20387;-77
2023/05/18 00:58:55;;;;;;;17.10;6.70;;;6.70;99.90;;;-144.05;58.89;56870.06;5037823;28;20114;-75
2023/05/18 01:01:35;;;;;;;17.35;6.35;;;6.70;99.90;;;-144.05;58.58;56916.81;5052669;28;20040;-76
2023/05/18 01:04:03;;;;;;;13.73;5.82;;;6.70;99.90;;;-144.05;58.26;56904.06;5036707;28;20108;-76
2023/05/18 01:06:34;;;;;;;13.02;5.97;;;6.70;99.90;;;-144.05;58.46;56891.31;5054373;28;20036;-76
2023/05/18 01:09:05;;;;;;;11.38;5.72;;;6.60;99.90;;;-144.05;58.75;56914.69;5054123;28;20108;-76
2023/05/18 01:12:06;;;;;;;9.57;4.60;;;6.60;99.90;;;-144.05;58.85;56889.19;5056348;28;20032;-76
2023/05/18 01:15:02;;;;;;;10.82;5.38;;;6.50;99.90;;;-144.05;59.34;56891.31;5055888;28;20029;-77
2023/05/18 01:17:53;;;;;;;10.98;4.82;;;6.50;99.90;;;-144.05;58.58;56861.56;5055640;28;20128;-77
2023/05/18 01:21:09;;;;;;;16.38;5.38;;;6.50;99.90;;;-144.05;58.61;56891.31;5053344;28;20127;-77
2023/05/18 01:24:27;;;;;;;12.30;4.30;;;6.50;99.90;;;-144.05;59.07;56897.69;5054766;28;20036;-77
2023/05/18 01:26:59;;;;;;;10.18;4.50;;;6.60;99.90;;;-144.05;58.67;56895.56;5037305;28;20478;-75
2023/05/18 01:29:27;;;;;;;15.20;4.38;;;6.60;99.90;;;-144.05;58.43;56901.94;5055390;28;20025;-76
2023/05/18 01:31:53;;;;;;;13.63;4.20;;;6.60;99.90;;;-144.05;58.23;56901.94;5055139;28;20489;-78
2023/05/18 01:34:18;;;;;;;13.10;4.22;;;6.50;99.90;;;-144.05;58.70;56872.19;5055086;28;20053;-77
2023/05/18 01:36:44;;;;;;;11.80;4.10;;;6.40;99.90;;;-144.05;59.29;56897.69;5055656;28;20480;-76
2023/05/18 01:39:11;;;;;;;10.07;4.13;;;6.40;99.90;;;-144.05;59.05;56872.19;5036510;28;20178;-77
2023/05/18 01:41:53;;;;;;;14.40;5.55;;;6.30;99.90;;;-144.05;59.50;56867.94;5055099;28;20081;-77
2023/05/18 01:44:55;;;;;;;14.85;5.32;;;6.20;99.90;;;-144.05;60.49;56878.56;5055160;28;20104;-78
2023/05/18 01:47:29;;;;;;;9.98;5.03;;;6.20;99.90;;;-144.05;60.65;56884.94;5054530;28;20025;-78
2023/05/18 01:50:13;;;;;;;13.07;4.80;;;6.10;99.90;;;-144.05;60.60;56895.56;5055336;28;20060;-77
2023/05/18 01:53:18;;;;;;;9.07;4.90;;;6.10;99.90;;;-144.05;60.22;56908.31;5036498;28;20507;-78
2023/05/18 01:55:49;;;;;;;12.88;5.85;;;6.10;99.90;;;-144.05;60.77;56882.81;5035604;28;20373;-78
2023/05/18 01:58:19;;;;;;;10.95;5.13;;;6.10;99.90;;;-144.05;60.80;56910.44;5054083;28;20033;-77
2023/05/18 02:00:46;;;;;;;10.85;5.05;;;6.00;99.90;;;-144.05;61.47;56908.31;5054560;28;20095;-78
2023/05/18 02:03:13;;;;;;;15.15;5.53;;;6.00;99.90;;;-144.05;61.33;56872.19;5053041;28;20088;-75
2023/05/18 02:05:39;;;;;;;15.77;5.65;;;6.00;99.90;;;-144.05;61.35;56908.31;5036450;28;20086;-77
2023/05/18 02:08:05;;;;;;;11.85;5.78;;;5.90;99.90;;;-144.05;61.10;56878.56;5036669;28;20037;-77
2023/05/18 02:10:31;;;;;;;19.52;5.63;;;5.90;99.90;;;-144.05;61.74;56895.56;5054049;28;20068;-77
2023/05/18 02:12:57;;;;;;;20.85;7.07;;;5.90;99.90;;;-144.05;62.29;56884.94;5053980;28;20036;-78
2023/05/18 02:15:23;;;;;;;14.93;6.30;;;5.90;99.90;;;-144.05;62.20;56887.06;5036424;28;20021;-76
2023/05/18 02:17:49;;;;;;;13.43;6.28;;;5.90;99.90;;;-144.05;61.93;56904.06;5053291;28;20511;-76
2023/05/18 02:20:17;;;;;;;11.50;6.15;;;5.80;99.90;;;-144.05;62.04;56895.56;5034498;28;20063;-76
2023/05/18 02:22:44;;;;;;;14.55;7.00;;;5.80;99.90;;;-144.05;62.40;56923.19;5053843;28;20073;-76
2023/05/18 02:25:11;;;;;;;16.77;6.20;;;5.80;99.90;;;-144.05;62.48;56891.31;5055586;28;20439;-75
2023/05/18 02:27:36;;;;;;;17.15;7.13;;;5.80;99.90;;;-144.05;62.35;56891.31;5056539;28;20059;-77
2023/05/18 02:30:07;;;;;;;14.93;6.72;;;5.70;99.90;;;-144.05;62.33;56901.94;5054838;28;20029;-77
2023/05/18 02:32:38;;;;;;;13.93;6.93;;;5.70;99.90;;;-144.05;62.40;56895.56;5052460;28;20450;-77
2023/05/18 02:35:08;;;;;;;17.60;6.93;;;5.60;99.90;;;-144.05;62.72;56912.56;5035892;28;20025;-77
2023/05/18 02:37:38;;;;;;;17.85;7.35;;;5.60;99.90;;;-144.05;63.35;56889.19;5035970;28;20392;-77
2023/05/18 02:40:09;;;;;;;16.90;6.95;;;5.50;99.90;;;-144.05;63.67;56895.56;5053921;28;20147;-77
2023/05/18 02:42:34;;;;;;;20.92;7.72;;;5.50;99.90;;;-144.05;63.68;56893.44;5053346;28;20039;-77
2023/05/18 02:45:01;;;;;;;13.82;6.50;;;5.50;99.90;;;-144.05;63.48;56870.06;5052575;28;20119;-77
2023/05/18 02:47:27;;;;;;;16.35;7.47;;;5.50;99.90;;;-144.05;63.56;56872.19;5053826;28;20224;-77
2023/05/18 02:49:53;;;;;;;13.98;7.00;;;5.50;99.90;;;-144.05;63.52;56878.56;5053864;28;20104;-77
2023/05/18 02:52:19;;;;;;;21.85;7.10;;;5.40;99.90;;;-144.05;63.67;56889.19;5036634;28;20128;-77
2023/05/18 02:54:45;;;;;;;19.30;8.77;;;5.40;99.90;;;-144.05;64.00;56910.44;5053814;28;20033;-77
2023/05/18 02:57:12;;;;;;;13.30;6.80;;;5.20;99.90;;;-144.05;64.42;56912.56;5053479;28;20056;-78
2023/05/18 02:59:39;;;;;;;19.23;7.15;;;5.20;99.90;;;-144.05;64.75;56906.19;5053829;28;20032;-77
2023/05/18 03:02:05;;;;;;;15.23;7.90;;;5.10;99.90;;;-144.05;65.15;56876.44;5053587;28;20025;-77
2023/05/18 03:04:31;;;;;;;21.05;7.82;;;5.00;99.90;;;-144.05;65.89;56923.19;5053084;28;20032;-77
2023/05/18 03:07:01;;;;;;;20.63;7.72;;;4.90;99.90;;;-144.05;65.67;56887.06;5053450;28;20146;-76
2023/05/18 03:09:28;;;;;;;22.38;7.45;;;4.90;99.90;;;-144.05;66.18;56916.81;5053309;28;20508;-76
2023/05/18 03:11:54;;;;;;;20.02;6.80;;;4.90;99.90;;;-144.05;66.65;56916.81;5055470;28;20033;-76
2023/05/18 03:14:20;;;;;;;14.30;6.38;;;5.00;99.90;;;-144.05;66.22;56876.44;5055008;28;20040;-76
2023/05/18 03:16:46;;;;;;;16.38;6.15;;;5.00;99.90;;;-144.05;66.28;56887.06;5053061;28;20108;-77
2023/05/18 03:19:14;;;;;;;14.93;6.30;;;4.90;99.90;;;-144.05;66.45;56895.56;5052779;28;20080;-76
2023/05/18 03:21:41;;;;;;;17.23;6.00;;;4.90;99.90;;;-144.05;66.93;56916.81;5052655;28;20347;-78
2023/05/18 03:24:07;;;;;;;20.70;7.43;;;4.80;99.90;;;-144.05;67.50;56889.19;5052798;28;20098;-75
2023/05/18 03:26:33;;;;;;;13.85;6.50;;;4.80;99.90;;;-144.05;67.38;56910.44;5053115;28;20073;-75
2023/05/18 03:29:00;;;;;;;17.95;7.00;;;4.70;99.90;;;-144.05;67.41;56882.81;5053398;28;20067;-77
2023/05/18 03:31:25;;;;;;;22.40;7.55;;;4.70;99.90;;;-144.05;67.89;56918.94;5052847;28;20147;-76
2023/05/18 03:33:51;;;;;;;16.77;6.93;;;4.60;99.90;;;-144.05;68.45;56910.44;5051887;28;20052;-72
2023/05/18 03:36:17;;;;;;;17.60;6.90;;;4.60;99.90;;;-144.05;68.57;56908.31;5052592;28;20037;-77
2023/05/18 03:38:46;;;;;;;14.02;6.55;;;4.60;99.90;;;-144.05;68.46;56914.69;5052417;28;20029;-75
2023/05/18 03:41:12;;;;;;;22.70;7.55;;;4.50;99.90;;;-144.05;68.64;56899.81;5034793;28;20345;-76
2023/05/18 03:43:38;;;;;;;14.30;6.28;;;4.50;99.90;;;-144.05;68.94;56884.94;5051542;28;20533;-76
2023/05/18 03:46:03;;;;;;;26.63;8.20;;;4.50;99.90;;;-144.05;69.18;56895.56;5052591;28;20037;-76
2023/05/18 03:48:29;;;;;;;12.35;6.47;;;4.50;99.90;;;-144.05;69.65;56914.69;5052210;28;20025;-77
2023/05/18 03:50:55;;;;;;;15.38;7.85;;;4.60;99.90;;;-144.05;69.55;56914.69;5055039;28;20032;-73
2023/05/18 03:53:21;;;;;;;20.27;7.47;;;4.60;99.90;;;-144.05;69.25;56912.56;5034930;28;20021;-76
2023/05/18 03:55:48;;;;;;;22.10;8.35;;;4.70;99.90;;;-144.05;69.13;56918.94;5035019;28;20033;-77
2023/05/18 03:58:15;;;;;;;19.33;7.07;;;4.70;99.90;;;-144.05;68.99;56889.19;5052575;28;20048;-76
2023/05/18 04:00:41;;;;;;;15.88;7.07;;;4.90;99.90;;;-144.05;67.91;56904.06;5051400;28;20032;-76
2023/05/18 04:03:11;;;;;;;24.58;7.20;;;4.90;99.90;;;-144.05;68.17;56887.06;5051067;28;20033;-76
2023/05/18 04:05:38;;;;;;;16.13;6.30;;;4.90;99.90;;;-144.05;67.83;56893.44;5052482;28;20607;-77
2023/05/18 04:08:06;;;;;;;15.10;6.90;;;5.00;99.90;;;-144.05;67.64;56927.41;5035114;28;20033;-77
2023/05/18 04:10:32;;;;;;;17.60;6.72;;;5.00;99.90;;;-144.05;67.36;56880.69;5052836;28;20028;-76
2023/05/18 04:12:58;;;;;;;16.83;6.32;;;5.00;99.90;;;-144.05;67.34;56889.19;5052380;28;20044;-76
2023/05/18 04:15:24;;;;;;;13.48;6.40;;;5.10;99.90;;;-144.05;67.18;56897.69;5052161;28;20521;-76
2023/05/18 04:17:52;;;;;;;18.17;7.22;;;5.00;99.90;;;-144.05;67.02;56887.06;5050755;28;20039;-76
2023/05/18 04:20:20;;;;;;;14.32;7.32;;;5.10;99.90;;;-144.05;66.57;56904.06;5054249;28;20029;-75
2023/05/18 04:22:47;;;;;;;14.60;6.30;;;5.10;99.90;;;-144.05;66.63;56904.06;5037717;28;20029;-77
2023/05/18 04:25:14;;;;;;;15.60;7.13;;;5.20;99.90;;;-144.05;66.75;56889.19;5055990;28;20028;-77
2023/05/18 04:27:44;;;;;;;15.63;7.57;;;5.20;99.90;;;-144.05;66.48;56891.31;5055512;28;20051;-77
2023/05/18 04:30:11;;;;;;;16.88;7.20;;;5.20;99.90;;;-144.05;66.05;56891.31;5055767;28;20029;-76
2023/05/18 04:32:41;;;;;;;14.77;6.85;;;5.20;99.90;;;-144.05;65.86;56899.81;5055570;28;20377;-77
2023/05/18 04:35:10;;;;;;;17.50;7.32;;;5.20;99.90;;;-144.05;66.00;56906.19;5054366;28;20025;-74
2023/05/18 04:37:39;;;;;;;19.77;7.03;;;5.30;99.90;;;-144.05;65.78;56870.06;5055828;28;20048;-78
2023/05/18 04:40:12;;;;;;;15.60;6.85;;;5.30;99.90;;;-144.05;65.72;56870.06;5055679;28;20044;-75
2023/05/18 04:42:46;;;;;;;16.20;6.90;;;5.30;99.90;;;-144.05;65.72;56916.81;5054885;28;20028;-76
2023/05/18 04:45:18;;;;;;;16.45;6.70;;;5.30;99.90;;;-144.05;65.57;56923.19;5053972;28;20033;-77
2023/05/18 04:47:52;;;;;;;14.82;6.70;;;5.40;99.90;;;-144.05;65.68;56899.81;5056503;28;20028;-77
2023/05/18 04:50:20;;;;;;;15.93;6.85;;;5.40;99.90;;;-144.05;65.23;56872.19;5055318;28;20040;-77
2023/05/18 04:52:49;;;;;;;11.88;6.85;;;5.50;99.90;;;-144.05;64.98;56904.06;5055135;28;20041;-75
2023/05/18 04:55:27;;;;;;;16.48;7.65;;;5.50;99.90;;;-144.05;64.74;56887.06;5054223;28;20029;-75
2023/05/18 04:57:56;;;;;;;20.02;7.95;;;5.60;99.90;;;-144.05;64.35;56893.44;5054865;28;20063;-76
2023/05/18 05:00:26;;;;;;;15.82;7.65;;;5.70;99.90;;;-144.05;63.90;56872.19;5055887;28;20028;-75
2023/05/18 05:02:54;;;;;;;16.05;7.20;;;5.80;99.90;;;-144.05;62.91;56876.44;5055136;28;20039;-76
2023/05/18 05:05:24;;;;;;;15.50;7.57;;;6.00;99.90;;;-144.05;62.90;56861.56;5037189;28;20021;-78
2023/05/18 05:07:54;;;;;;;16.45;7.68;;;6.10;99.90;;;-144.05;62.18;56887.06;5055440;28;20112;-76
2023/05/18 05:10:22;;;;;;;17.73;7.95;;;6.30;99.90;;;-144.05;60.80;56861.56;5054995;28;20036;-75
2023/05/18 05:12:49;;;;;;;14.90;6.60;;;6.50;99.90;;;-144.05;60.21;56884.94;5055098;28;20041;-75
2023/05/18 05:15:17;;;;;;;12.70;6.88;;;6.60;99.90;;;-144.05;59.42;56874.31;5054768;28;20158;-75
2023/05/18 05:17:42;;;;;;;12.93;6.80;;;6.80;99.90;;;-144.05;58.67;56882.81;5055063;28;20037;-77
2023/05/18 05:20:09;;;;;;;14.23;6.20;;;6.90;99.90;;;-144.05;57.90;56855.22;5057113;28;20032;-77
2023/05/18 05:22:35;;;;;;;16.92;7.55;;;7.10;99.90;;;-144.05;57.10;56870.06;5055229;28;20025;-76
2023/05/18 05:27:29;;;;;;;12.00;6.50;;;7.40;99.90;;;-144.05;54.76;56861.56;5053189;28;20513;-76
2023/05/18 05:29:55;;;;;;;9.75;5.32;;;7.60;99.90;;;-144.05;54.61;56855.22;5054829;28;20026;-78
2023/05/18 05:32:21;;;;;;;15.00;6.43;;;7.70;99.90;;;-144.05;53.98;56870.06;5054313;28;20071;-74
2023/05/18 05:34:49;;;;;;;9.60;5.88;;;7.80;99.90;;;-144.05;53.06;56882.81;5054554;28;20439;-75
2023/05/18 05:37:17;;;;;;;11.48;6.43;;;8.00;99.90;;;-144.05;52.36;56874.31;5053874;28;20091;-78
2023/05/18 05:39:43;;;;;;;12.35;5.90;;;8.20;99.90;;;-144.05;51.94;56882.81;5052500;28;20108;-75
2023/05/18 05:42:09;;;;;;;12.32;6.15;;;8.40;99.90;;;-144.05;51.47;56861.56;5053719;28;20029;-76
2023/05/18 05:44:35;;;;;;;11.50;5.80;;;8.50;99.90;;;-144.05;50.32;56872.19;5053798;28;20025;-75
2023/05/18 05:47:02;;;;;;;14.40;6.22;;;8.60;99.90;;;-144.05;50.68;56855.22;5053668;28;20029;-76
2023/05/18 05:49:28;;;;;;;12.23;5.38;;;8.60;99.90;;;-144.05;51.11;56853.09;5053142;28;20033;-78
2023/05/18 05:51:54;;;;;;;13.88;5.32;;;8.70;99.90;;;-144.05;50.32;56853.09;5054035;28;20506;-77
2023/05/18 05:54:20;;;;;;;12.00;5.38;;;8.90;99.90;;;-144.05;49.47;56855.22;5053200;28;20037;-77
2023/05/18 05:56:46;;;;;;;15.10;5.85;;;9.10;99.90;;;-144.05;49.02;56863.69;5054031;28;20029;-77
2023/05/18 05:59:12;;;;;;;11.55;4.75;;;9.20;99.90;;;-144.05;49.28;56865.81;5053637;28;20655;-76
2023/05/18 06:01:37;;;;;;;15.38;5.35;;;9.30;99.90;;;-144.05;48.44;56859.47;5058835;28;20131;-76
2023/05/18 06:04:05;;;;;;;13.48;4.95;;;9.30;99.90;;;-144.05;48.20;56882.81;5052644;28;20033;-77
2023/05/18 06:06:31;;;;;;;8.77;4.93;;;9.30;99.90;;;-144.05;47.87;56865.81;5053388;28;20060;-77
2023/05/18 06:08:57;;;;;;;13.50;5.35;;;9.30;99.90;;;-144.05;48.44;56859.47;5053939;28;20033;-77
2023/05/18 06:11:23;;;;;;;9.93;4.63;;;9.40;99.90;;;-144.05;47.69;56842.47;5053840;28;20452;-78
2023/05/18 06:13:48;;;;;;;11.88;4.30;;;9.50;99.90;;;-144.05;47.95;56840.34;5052190;28;20031;-77
2023/05/18 06:16:14;;;;;;;13.95;4.80;;;9.70;99.90;;;-144.05;46.98;56876.44;5053515;28;20051;-75
2023/05/18 06:18:40;;;;;;;11.00;4.72;;;9.80;99.90;;;-144.05;46.51;56833.97;5052704;28;20515;-78
2023/05/18 06:21:06;;;;;;;11.30;4.53;;;9.90;99.90;;;-144.05;45.67;56880.69;5052827;28;20485;-77
2023/05/18 06:23:32;;;;;;;12.65;4.93;;;10.10;99.90;;;-144.05;46.40;56836.09;5053549;28;20029;-74
2023/05/18 06:25:57;;;;;;;13.13;4.57;;;10.10;99.90;;;-144.05;45.80;56842.47;5053542;28;20319;-75
2023/05/18 06:28:23;;;;;;;9.10;4.18;;;10.30;99.90;;;-144.05;45.33;56842.47;5051922;28;20029;-75
2023/05/18 06:30:49;;;;;;;12.02;4.28;;;10.30;99.90;;;-144.05;45.78;56876.44;5052900;28;20025;-77
2023/05/18 06:33:16;;;;;;;9.23;4.40;;;10.40;99.90;;;-144.05;45.33;56831.84;5053787;28;20025;-78
2023/05/18 06:35:42;;;;;;;12.18;4.95;;;10.50;99.90;;;-144.05;44.17;56838.22;5052775;28;20480;-76
2023/05/18 06:38:08;;;;;;;7.70;3.75;;;10.80;99.90;;;-144.05;43.78;56836.09;5052614;28;20038;-73
2023/05/18 06:40:34;;;;;;;14.75;4.28;;;11.00;99.90;;;-144.05;43.72;56842.47;5052926;28;20026;-76
2023/05/18 06:43:00;;;;;;;9.23;3.88;;;11.20;99.90;;;-144.05;43.56;56821.22;5052349;28;20074;-75
2023/05/18 06:45:26;;;;;;;11.48;4.32;;;11.40;99.90;;;-144.05;42.77;56836.09;5053390;28;20029;-75
2023/05/18 06:47:52;;;;;;;10.70;4.15;;;11.50;99.90;;;-144.05;42.48;56848.84;5053120;28;20036;-77
2023/05/18 06:50:18;;;;;;;11.48;4.07;;;11.80;99.90;;;-144.05;41.48;56859.47;5052922;28;20043;-76
2023/05/18 06:52:44;;;;;;;8.85;3.40;;;11.80;99.90;;;-144.05;42.04;56846.72;5051469;28;20555;-75
2023/05/18 06:55:10;;;;;;;15.05;4.00;;;11.70;99.90;;;-144.05;40.85;56848.84;5052472;28;20087;-76
2023/05/18 06:57:35;;;;;;;9.82;3.55;;;12.00;99.90;;;-144.05;40.83;56844.59;5052857;28;20033;-77
2023/05/18 07:00:01;;;;;;;7.50;3.45;;;12.10;99.90;;;-144.05;40.91;56836.09;5053262;28;20116;-75
2023/05/18 07:02:27;;;;;;;13.00;4.50;;;12.30;99.90;;;-144.05;41.21;56846.72;5052185;28;20032;-75
2023/05/18 07:04:53;;;;;;;11.93;3.17;;;12.40;99.90;;;-144.05;40.57;56848.84;5052426;28;20035;-75
2023/05/18 07:07:20;;;;;;;9.77;3.60;;;12.40;99.90;;;-144.05;40.53;56846.72;5052696;28;20074;-77
2023/05/18 07:09:48;;;;;;;10.90;4.18;;;12.40;99.90;;;-144.05;40.87;56842.47;5052595;28;20141;-76
2023/05/18 07:12:14;;;;;;;9.13;3.85;;;12.30;99.90;;;-144.05;40.78;56865.81;5052424;28;20037;-76
2023/05/18 07:14:40;;;;;;;12.00;3.25;;;12.40;99.90;;;-144.05;40.25;56844.59;5052836;28;20033;-77
2023/05/18 07:17:06;;;;;;;9.27;3.17;;;12.40;99.90;;;-144.05;39.78;56827.59;5052510;28;20032;-78
2023/05/18 07:19:34;;;;;;;11.32;3.90;;;12.50;99.90;;;-144.05;40.29;56836.09;5052789;28;20017;-76
2023/05/18 07:22:00;;;;;;;10.85;3.67;;;12.60;99.90;;;-144.05;39.01;56836.09;5052057;28;20454;-77
2023/05/18 07:24:26;;;;;;;7.95;3.10;;;12.90;99.90;;;-144.05;39.50;56838.22;5051139;28;20032;-76
2023/05/18 07:26:51;;;;;;;9.02;2.97;;;13.10;99.90;;;-144.05;38.53;56859.47;5052308;28;20373;-77
2023/05/18 07:29:17;;;;;;;15.30;3.10;;;13.30;99.90;;;-144.05;38.44;56840.34;5052369;28;20021;-77
2023/05/18 07:31:43;;;;;;;10.48;2.88;;;13.40;99.90;;;-144.05;38.10;56863.69;5052556;28;20428;-75
2023/05/18 07:34:09;;;;;;;10.23;3.10;;;13.60;99.90;;;-144.05;37.60;56833.97;5052549;28;20025;-75
2023/05/18 07:36:35;;;;;;;11.02;3.08;;;13.80;99.90;;;-144.05;37.86;56848.84;5050992;28;20063;-77
2023/05/18 07:39:01;;;;;;;10.23;4.00;;;13.80;99.90;;;-144.05;37.01;56855.22;5061464;28;20067;-77
2023/05/18 07:41:27;;;;;;;10.68;3.25;;;13.90;99.90;;;-144.05;37.85;56861.56;5066302;28;20052;-75
2023/05/18 07:43:53;;;;;;;10.02;3.83;;;13.90;99.90;;;-144.05;37.00;56842.47;5055419;28;20025;-75
2023/05/18 07:46:19;;;;;;;10.57;3.47;;;14.00;99.90;;;-144.05;36.90;56827.59;5052813;28;20029;-76
2023/05/18 07:48:45;;;;;;;12.02;3.28;;;14.20;99.90;;;-144.05;36.84;56838.22;5052452;28;20029;-76
2023/05/18 07:51:12;;;;;;;11.32;3.10;;;14.30;99.90;;;-144.05;36.18;56844.59;5051916;28;20029;-74
2023/05/18 07:53:39;;;;;;;13.85;3.35;;;14.40;99.90;;;-144.05;36.27;56844.59;5053148;28;20470;-75
2023/05/18 07:56:07;;;;;;;10.57;3.35;;;14.30;99.90;;;-144.05;37.26;56861.56;5056543;28;20488;-75
2023/05/18 07:58:36;;;;;;;9.07;3.13;;;14.20;99.90;;;-144.05;36.47;56833.97;5056315;28;20029;-76
2023/05/18 08:01:03;;;;;;;10.30;2.97;;;14.20;99.90;;;-144.05;36.61;56833.97;5056130;28;20472;-73
2023/05/18 08:03:28;;;;;;;10.52;3.17;;;14.30;99.90;;;-144.05;36.57;56836.09;5056017;28;20075;-74
2023/05/18 08:05:54;;;;;;;8.05;2.58;;;14.20;99.90;;;-144.05;36.23;56863.69;5054721;28;20045;-75
2023/05/18 08:08:20;;;;;;;9.75;2.72;;;14.50;99.90;;;-144.05;36.17;56859.47;5055563;28;20021;-74
2023/05/18 08:10:46;;;;;;;10.65;3.03;;;14.80;99.90;;;-144.05;35.84;56814.84;5055293;28;20025;-76
2023/05/18 08:13:12;;;;;;;11.98;3.15;;;15.10;99.90;;;-144.05;34.61;56863.69;5053951;28;20171;-76
2023/05/18 08:15:39;;;;;;;11.52;3.30;;;15.20;99.20;;;-144.05;34.94;56850.97;5055232;28;20049;-75
2023/05/18 08:18:05;;;;;;;14.77;3.65;;;15.60;99.90;;;-144.05;34.36;56831.84;5053789;28;20110;-75
2023/05/18 08:20:31;;;;;;;11.45;3.05;;;15.70;97.80;;;-144.05;34.91;56865.81;5055436;28;20033;-75
2023/05/18 08:22:57;;;;;;;11.27;3.00;;;15.40;97.60;;;-144.05;35.26;56833.97;5053746;28;20115;-75
2023/05/18 08:25:24;;;;;;;12.15;3.22;;;15.10;97.50;;;-144.05;34.77;56836.09;5054859;28;20438;-74
2023/05/18 08:27:50;;;;;;;8.88;2.95;;;15.20;97.20;;;-144.05;33.74;56821.22;5055105;28;20017;-75
2023/05/18 08:30:20;;;;;;;9.88;3.20;;;15.60;96.50;;;-144.05;33.08;56840.34;5042991;28;20547;-74
2023/05/18 08:32:49;;;;;;;8.57;3.10;;;15.90;95.30;;;-144.05;33.41;56844.59;5045194;28;20027;-75
2023/05/18 08:35:15;;;;;;;9.07;2.65;;;15.70;94.90;;;-144.05;34.01;56859.47;5043724;28;20025;-76
2023/05/18 08:37:41;;;;;;;10.93;3.03;;;15.40;95.50;;;-144.05;34.03;56863.69;5042925;28;20032;-76
2023/05/18 08:40:10;;;;;;;7.97;2.55;;;15.30;95.20;;;-144.05;34.00;56846.72;5046713;28;20032;-77
2023/05/18 08:42:50;;;;;;;8.77;2.90;;;15.40;95.50;;;-144.05;33.20;56857.34;5040888;28;20033;-75
2023/05/18 08:45:41;;;;;;;7.20;2.50;;;15.60;93.90;;;-144.05;33.53;56861.56;5034857;28;20061;-76
2023/05/18 08:48:11;;;;;;;10.48;3.08;;;15.60;94.10;;;-144.05;32.74;56850.97;5034666;28;20064;-75
2023/05/18 08:50:42;;;;;;;8.85;3.33;;;15.80;93.60;;;-144.05;32.38;56853.09;5035320;28;20025;-77
2023/05/18 08:53:13;;;;;;;8.15;2.80;;;15.90;92.40;;;-144.05;32.42;56842.47;5033162;28;20508;-77
2023/05/18 08:55:41;;;;;;;12.35;3.53;;;15.80;92.00;;;-144.05;32.73;56863.69;5033210;28;20033;-76
2023/05/18 08:58:15;;;;;;;9.73;2.50;;;15.90;92.70;;;-144.05;33.22;56833.97;5034495;28;20026;-76
2023/05/18 09:00:41;;;;;;;8.48;2.75;;;15.70;93.10;;;-144.05;32.73;56846.72;5034660;28;20032;-76
2023/05/18 09:03:07;;;;;;;9.30;2.88;;;16.20;92.60;;;-144.05;32.20;56850.97;5034721;28;20100;-75
2023/05/18 09:05:34;;;;;;;9.93;2.70;;;16.40;92.20;;;-144.05;32.39;56874.31;5034018;28;20163;-77
2023/05/18 09:08:02;;;;;;;11.57;2.47;;;16.70;92.30;;;-144.05;31.32;56865.81;5034345;28;20045;-78
2023/05/18 09:10:32;;;;;;;10.93;2.50;;;16.70;90.10;;;-144.05;31.88;56861.56;5034267;28;20033;-76
2023/05/18 09:13:01;;;;;;;8.63;2.53;;;16.60;91.40;;;-144.05;32.41;56850.97;5033257;28;20049;-77
2023/05/18 09:15:27;;;;;;;8.65;2.88;;;16.80;91.60;;;-144.05;31.59;56850.97;5034543;28;20105;-77
2023/05/18 09:17:53;;;;;;;10.50;3.33;;;16.80;89.70;;;-144.05;32.10;56861.56;5034511;28;20034;-76
2023/05/18 09:20:20;;;;;;;9.93;2.95;;;16.50;89.10;;;-144.05;32.24;56882.81;5033400;28;20120;-76
2023/05/18 09:22:50;;;;;;;5.97;2.65;;;16.20;89.30;;;-144.05;32.20;56855.22;5034955;28;20032;-77
2023/05/18 09:25:18;;;;;;;7.18;3.20;;;16.40;89.60;;;-144.05;32.45;56850.97;5034417;28;20040;-76
2023/05/18 09:27:46;;;;;;;11.40;3.05;;;16.60;90.30;;;-144.05;31.55;56863.69;5034614;28;20037;-77
2023/05/18 09:30:12;;;;;;;9.90;2.97;;;16.60;86.00;;;-144.05;31.83;56857.34;5034227;28;20029;-77
2023/05/18 09:32:39;;;;;;;12.32;3.65;;;17.00;88.60;;;-144.05;31.34;56870.06;5033124;28;20029;-78
2023/05/18 09:35:07;;;;;;;9.90;2.90;;;17.10;86.80;;;-144.05;31.73;56850.97;5035137;28;20489;-77
2023/05/18 09:37:34;;;;;;;8.20;2.78;;;16.90;87.20;;;-144.05;31.06;56853.09;5035025;28;20087;-78
2023/05/18 09:40:05;;;;;;;10.77;3.22;;;17.20;86.60;;;-144.05;30.94;56859.47;5035056;28;20048;-77
2023/05/18 09:42:43;;;;;;;6.10;2.72;;;17.40;84.30;;;-144.05;30.95;56874.31;5034477;28;20428;-79
2023/05/18 09:45:27;;;;;;;14.77;3.20;;;17.50;84.80;;;-144.05;30.52;56865.81;5035364;28;20057;-78
2023/05/18 09:47:53;;;;;;;10.70;2.78;;;17.70;83.50;;;-144.05;29.67;56865.81;5034256;28;20025;-78
2023/05/18 09:50:24;;;;;;;12.57;3.15;;;17.60;81.20;;;-144.05;29.87;56882.81;5034114;28;20037;-78
2023/05/18 09:52:50;;;;;;;10.60;3.20;;;17.70;81.50;;;-144.05;30.35;56870.06;5034523;28;20447;-77
2023/05/18 09:55:19;;;;;;;11.18;3.17;;;17.90;81.30;;;-144.05;29.44;56870.06;5035808;28;20029;-78
2023/05/18 09:57:48;;;;;;;6.25;2.53;;;18.10;79.90;;;-144.05;29.43;56859.47;5043152;28;20045;-79
2023/05/18 10:00:18;;;;;;;7.75;2.60;;;18.30;79.80;;;-144.05;29.13;56887.06;5045331;28;20022;-78
2023/05/18 10:02:51;;;;;;;12.20;2.95;;;18.60;78.10;;;-144.05;28.70;56872.19;5034498;28;20056;-77
2023/05/18 10:05:30;;;;;;;12.38;3.28;;;18.50;74.80;;;-144.05;29.72;56870.06;5035182;28;20048;-78
2023/05/18 10:07:57;;;;;;;7.95;3.00;;;18.50;76.80;;;-144.05;29.55;56878.56;5033844;28;20034;-79
2023/05/18 10:10:28;;;;;;;8.35;2.50;;;18.20;76.40;;;-144.05;29.60;56876.44;5035608;28;20033;-79
2023/05/18 10:12:57;;;;;;;9.63;3.03;;;18.30;77.60;;;-144.05;30.03;56876.44;5032448;28;20029;-77
2023/05/18 10:15:24;;;;;;;11.55;3.03;;;18.50;80.00;;;-144.05;29.10;56882.81;5033858;28;20480;-77